sensor_id;sensor_type;location;lat;lon;timestamp;temperature;humidity
60242;SHT30;46103;52.076;113.488;2023-04-01T00:01:38;-2.81;42.15
60242;SHT30;46103;52.076;113.488;2023-04-01T00:04:42;-2.77;41.58
60242;SHT30;46103;52.076;113.488;2023-04-01T00:07:46;-2.84;41.46
60242;SHT30;46103;52.076;113.488;2023-04-01T00:10:50;-2.66;41.55
60242;SHT30;46103;52.076;113.488;2023-04-01T00:13:53;-2.49;40.93
60242;SHT30;46103;52.076;113.488;2023-04-01T00:16:57;-2.48;40.96
60242;SHT30;46103;52.076;113.488;2023-04-01T00:20:02;-2.39;40.75
60242;SHT30;46103;52.076;113.488;2023-04-01T00:23:06;-2.11;40.40
60242;SHT30;46103;52.076;113.488;2023-04-01T00:26:10;-1.93;39.60
60242;SHT30;46103;52.076;113.488;2023-04-01T00:29:15;-1.93;39.65
60242;SHT30;46103;52.076;113.488;2023-04-01T00:32:19;-1.69;39.41
60242;SHT30;46103;52.076;113.488;2023-04-01T00:35:23;-1.45;38.76
60242;SHT30;46103;52.076;113.488;2023-04-01T00:38:27;-1.32;38.71
60242;SHT30;46103;52.076;113.488;2023-04-01T00:41:30;-1.31;38.56
60242;SHT30;46103;52.076;113.488;2023-04-01T00:44:36;-1.11;38.07
60242;SHT30;46103;52.076;113.488;2023-04-01T00:47:40;-1.03;37.51
60242;SHT30;46103;52.076;113.488;2023-04-01T00:54:16;-1.21;37.95
60242;SHT30;46103;52.076;113.488;2023-04-01T00:57:31;-1.08;37.80
60242;SHT30;46103;52.076;113.488;2023-04-01T01:00:36;-1.03;37.72
60242;SHT30;46103;52.076;113.488;2023-04-01T01:03:40;-0.74;37.64
60242;SHT30;46103;52.076;113.488;2023-04-01T01:13:25;-0.18;35.78
60242;SHT30;46103;52.076;113.488;2023-04-01T01:16:38;0.03;35.90
60242;SHT30;46103;52.076;113.488;2023-04-01T01:27:11;0.55;34.31
60242;SHT30;46103;52.076;113.488;2023-04-01T01:30:36;0.53;34.74
60242;SHT30;46103;52.076;113.488;2023-04-01T01:33:53;0.44;35.13
60242;SHT30;46103;52.076;113.488;2023-04-01T01:37:00;0.60;34.85
60242;SHT30;46103;52.076;113.488;2023-04-01T01:40:10;0.48;33.97
60242;SHT30;46103;52.076;113.488;2023-04-01T01:43:18;0.34;34.35
60242;SHT30;46103;52.076;113.488;2023-04-01T01:46:26;0.33;34.86
60242;SHT30;46103;52.076;113.488;2023-04-01T01:49:33;0.53;34.21
60242;SHT30;46103;52.076;113.488;2023-04-01T01:52:38;0.54;33.97
60242;SHT30;46103;52.076;113.488;2023-04-01T01:55:45;0.62;34.08
60242;SHT30;46103;52.076;113.488;2023-04-01T01:59:06;0.84;33.79
60242;SHT30;46103;52.076;113.488;2023-04-01T02:02:13;0.96;33.16
60242;SHT30;46103;52.076;113.488;2023-04-01T02:05:21;1.10;32.95
60242;SHT30;46103;52.076;113.488;2023-04-01T02:08:42;1.20;33.04
60242;SHT30;46103;52.076;113.488;2023-04-01T02:11:59;1.37;32.81
60242;SHT30;46103;52.076;113.488;2023-04-01T02:15:11;1.78;32.01
60242;SHT30;46103;52.076;113.488;2023-04-01T02:18:18;2.20;31.62
60242;SHT30;46103;52.076;113.488;2023-04-01T02:21:26;2.33;30.87
60242;SHT30;46103;52.076;113.488;2023-04-01T02:24:31;2.05;30.94
60242;SHT30;46103;52.076;113.488;2023-04-01T02:27:36;1.91;31.41
60242;SHT30;46103;52.076;113.488;2023-04-01T02:30:41;1.78;31.58
60242;SHT30;46103;52.076;113.488;2023-04-01T02:33:46;1.70;31.58
60242;SHT30;46103;52.076;113.488;2023-04-01T02:36:51;1.68;31.74
60242;SHT30;46103;52.076;113.488;2023-04-01T02:40:00;1.99;31.56
60242;SHT30;46103;52.076;113.488;2023-04-01T02:43:04;1.83;31.46
60242;SHT30;46103;52.076;113.488;2023-04-01T02:46:07;1.81;31.51
60242;SHT30;46103;52.076;113.488;2023-04-01T02:49:11;1.61;31.96
60242;SHT30;46103;52.076;113.488;2023-04-01T02:52:15;1.68;31.55
60242;SHT30;46103;52.076;113.488;2023-04-01T02:55:18;1.60;32.05
60242;SHT30;46103;52.076;113.488;2023-04-01T02:58:22;1.79;31.78
60242;SHT30;46103;52.076;113.488;2023-04-01T03:01:25;1.50;32.15
60242;SHT30;46103;52.076;113.488;2023-04-01T03:04:29;1.65;32.08
60242;SHT30;46103;52.076;113.488;2023-04-01T03:07:33;2.22;31.51
60242;SHT30;46103;52.076;113.488;2023-04-01T03:10:37;2.48;30.90
60242;SHT30;46103;52.076;113.488;2023-04-01T03:13:41;2.41;30.55
60242;SHT30;46103;52.076;113.488;2023-04-01T03:16:46;2.46;30.67
60242;SHT30;46103;52.076;113.488;2023-04-01T03:19:50;2.41;30.74
60242;SHT30;46103;52.076;113.488;2023-04-01T03:22:54;2.34;30.94
60242;SHT30;46103;52.076;113.488;2023-04-01T03:25:58;1.96;31.49
60242;SHT30;46103;52.076;113.488;2023-04-01T03:29:02;2.13;31.61
60242;SHT30;46103;52.076;113.488;2023-04-01T03:32:06;1.92;31.10
60242;SHT30;46103;52.076;113.488;2023-04-01T03:35:10;1.91;31.64
60242;SHT30;46103;52.076;113.488;2023-04-01T03:38:15;2.06;30.92
60242;SHT30;46103;52.076;113.488;2023-04-01T03:41:18;2.25;30.57
60242;SHT30;46103;52.076;113.488;2023-04-01T03:44:23;2.16;30.70
60242;SHT30;46103;52.076;113.488;2023-04-01T03:47:28;2.34;30.89
60242;SHT30;46103;52.076;113.488;2023-04-01T03:50:34;2.71;30.03
60242;SHT30;46103;52.076;113.488;2023-04-01T03:53:38;2.41;30.13
60242;SHT30;46103;52.076;113.488;2023-04-01T03:56:42;2.16;30.46
60242;SHT30;46103;52.076;113.488;2023-04-01T03:59:46;2.15;30.59
60242;SHT30;46103;52.076;113.488;2023-04-01T04:02:50;1.92;31.28
60242;SHT30;46103;52.076;113.488;2023-04-01T04:06:00;2.13;31.18
60242;SHT30;46103;52.076;113.488;2023-04-01T04:09:05;2.44;30.74
60242;SHT30;46103;52.076;113.488;2023-04-01T04:12:09;2.73;30.43
60242;SHT30;46103;52.076;113.488;2023-04-01T04:15:13;2.61;29.85
60242;SHT30;46103;52.076;113.488;2023-04-01T04:18:18;2.50;30.14
60242;SHT30;46103;52.076;113.488;2023-04-01T04:21:22;2.60;29.85
60242;SHT30;46103;52.076;113.488;2023-04-01T04:24:26;2.47;29.36
60242;SHT30;46103;52.076;113.488;2023-04-01T04:27:40;2.57;29.42
60242;SHT30;46103;52.076;113.488;2023-04-01T04:30:46;2.74;29.36
60242;SHT30;46103;52.076;113.488;2023-04-01T04:33:50;2.74;28.83
60242;SHT30;46103;52.076;113.488;2023-04-01T04:36:58;2.89;28.98
60242;SHT30;46103;52.076;113.488;2023-04-01T04:40:06;2.88;29.26
60242;SHT30;46103;52.076;113.488;2023-04-01T04:43:12;2.77;29.16
60242;SHT30;46103;52.076;113.488;2023-04-01T04:46:17;2.66;28.53
60242;SHT30;46103;52.076;113.488;2023-04-01T04:49:24;2.57;28.48
60242;SHT30;46103;52.076;113.488;2023-04-01T04:52:28;2.38;28.74
60242;SHT30;46103;52.076;113.488;2023-04-01T04:55:32;2.20;29.19
60242;SHT30;46103;52.076;113.488;2023-04-01T04:58:52;2.16;28.73
60242;SHT30;46103;52.076;113.488;2023-04-01T05:02:07;1.95;28.93
60242;SHT30;46103;52.076;113.488;2023-04-01T05:05:11;1.82;29.14
60242;SHT30;46103;52.076;113.488;2023-04-01T05:08:15;1.96;29.02
60242;SHT30;46103;52.076;113.488;2023-04-01T05:11:19;1.98;28.92
60242;SHT30;46103;52.076;113.488;2023-04-01T05:14:25;2.08;29.22
60242;SHT30;46103;52.076;113.488;2023-04-01T05:17:37;2.05;28.34
60242;SHT30;46103;52.076;113.488;2023-04-01T05:20:49;1.95;28.72
60242;SHT30;46103;52.076;113.488;2023-04-01T05:23:54;1.98;28.97
60242;SHT30;46103;52.076;113.488;2023-04-01T05:26:59;1.68;28.75
60242;SHT30;46103;52.076;113.488;2023-04-01T05:30:05;1.79;29.24
60242;SHT30;46103;52.076;113.488;2023-04-01T05:33:32;1.77;29.20
60242;SHT30;46103;52.076;113.488;2023-04-01T05:36:37;1.85;28.36
60242;SHT30;46103;52.076;113.488;2023-04-01T05:39:40;1.58;28.18
60242;SHT30;46103;52.076;113.488;2023-04-01T05:42:45;1.27;28.20
60242;SHT30;46103;52.076;113.488;2023-04-01T05:45:49;1.17;29.15
60242;SHT30;46103;52.076;113.488;2023-04-01T05:49:20;1.17;28.91
60242;SHT30;46103;52.076;113.488;2023-04-01T05:52:28;1.29;29.56
60242;SHT30;46103;52.076;113.488;2023-04-01T05:55:31;1.43;29.76
60242;SHT30;46103;52.076;113.488;2023-04-01T05:58:36;1.27;29.36
60242;SHT30;46103;52.076;113.488;2023-04-01T06:01:42;1.10;29.04
60242;SHT30;46103;52.076;113.488;2023-04-01T06:04:46;1.10;28.69
60242;SHT30;46103;52.076;113.488;2023-04-01T06:08:05;1.34;28.81
60242;SHT30;46103;52.076;113.488;2023-04-01T06:35:16;3.41;25.40
60242;SHT30;46103;52.076;113.488;2023-04-01T06:42:22;3.58;25.37
60242;SHT30;46103;52.076;113.488;2023-04-01T06:45:40;3.24;26.05
60242;SHT30;46103;52.076;113.488;2023-04-01T06:52:58;3.34;25.34
60242;SHT30;46103;52.076;113.488;2023-04-01T06:56:25;3.24;25.66
60242;SHT30;46103;52.076;113.488;2023-04-01T06:59:39;3.41;25.30
60242;SHT30;46103;52.076;113.488;2023-04-01T07:02:55;3.54;24.93
60242;SHT30;46103;52.076;113.488;2023-04-01T07:06:24;3.85;24.52
60242;SHT30;46103;52.076;113.488;2023-04-01T07:09:40;4.23;24.34
60242;SHT30;46103;52.076;113.488;2023-04-01T07:13:22;4.74;22.98
60242;SHT30;46103;52.076;113.488;2023-04-01T07:16:43;4.74;23.42
60242;SHT30;46103;52.076;113.488;2023-04-01T07:23:22;4.60;22.62
60242;SHT30;46103;52.076;113.488;2023-04-01T07:26:59;4.43;22.64
60242;SHT30;46103;52.076;113.488;2023-04-01T07:30:18;4.87;22.37
60242;SHT30;46103;52.076;113.488;2023-04-01T07:33:39;4.67;22.14
60242;SHT30;46103;52.076;113.488;2023-04-01T07:36:51;4.49;22.90
60242;SHT30;46103;52.076;113.488;2023-04-01T07:43:21;4.25;22.71
60242;SHT30;46103;52.076;113.488;2023-04-01T07:50:05;4.64;22.63
60242;SHT30;46103;52.076;113.488;2023-04-01T07:53:30;5.54;21.78
60242;SHT30;46103;52.076;113.488;2023-04-01T07:56:48;4.67;21.98
60242;SHT30;46103;52.076;113.488;2023-04-01T08:00:17;4.33;22.45
60242;SHT30;46103;52.076;113.488;2023-04-01T08:07:20;5.33;20.93
60242;SHT30;46103;52.076;113.488;2023-04-01T08:11:25;5.79;20.32
60242;SHT30;46103;52.076;113.488;2023-04-01T08:22:27;5.68;19.82
60242;SHT30;46103;52.076;113.488;2023-04-01T08:25:39;5.04;20.01
60242;SHT30;46103;52.076;113.488;2023-04-01T08:28:51;4.65;20.98
60242;SHT30;46103;52.076;113.488;2023-04-01T08:31:59;4.49;21.58
60242;SHT30;46103;52.076;113.488;2023-04-01T08:38:39;4.42;22.12
60242;SHT30;46103;52.076;113.488;2023-04-01T08:52:33;3.70;23.05
60242;SHT30;46103;52.076;113.488;2023-04-01T08:58:55;3.57;24.15
60242;SHT30;46103;52.076;113.488;2023-04-01T09:09:34;3.22;23.77
60242;SHT30;46103;52.076;113.488;2023-04-01T09:16:16;3.22;24.44
60242;SHT30;46103;52.076;113.488;2023-04-01T09:39:38;3.09;24.75
60242;SHT30;46103;52.076;113.488;2023-04-01T09:42:56;2.98;24.27
60242;SHT30;46103;52.076;113.488;2023-04-01T09:49:38;2.62;24.53
60242;SHT30;46103;52.076;113.488;2023-04-01T09:53:04;2.53;24.83
60242;SHT30;46103;52.076;113.488;2023-04-01T10:07:07;2.47;25.64
60242;SHT30;46103;52.076;113.488;2023-04-01T10:21:07;2.22;26.30
60242;SHT30;46103;52.076;113.488;2023-04-01T10:57:10;1.83;27.07
60242;SHT30;46103;52.076;113.488;2023-04-01T11:00:57;1.79;27.38
60242;SHT30;46103;52.076;113.488;2023-04-01T11:05:02;1.70;27.22
60242;SHT30;46103;52.076;113.488;2023-04-01T11:19:29;1.44;27.77
60242;SHT30;46103;52.076;113.488;2023-04-01T11:23:14;1.41;27.72
60242;SHT30;46103;52.076;113.488;2023-04-01T11:27:05;1.36;28.02
60242;SHT30;46103;52.076;113.488;2023-04-01T11:37:47;1.10;28.65
60242;SHT30;46103;52.076;113.488;2023-04-01T12:02:48;0.67;29.01
60242;SHT30;46103;52.076;113.488;2023-04-01T12:14:09;0.31;28.73
60242;SHT30;46103;52.076;113.488;2023-04-01T12:16:52;0.27;29.55
60242;SHT30;46103;52.076;113.488;2023-04-01T12:20:38;0.14;28.85
60242;SHT30;46103;52.076;113.488;2023-04-01T12:31:14;-0.10;29.42
60242;SHT30;46103;52.076;113.488;2023-04-01T12:38:04;-0.17;29.04
60242;SHT30;46103;52.076;113.488;2023-04-01T12:48:22;-0.30;29.17
60242;SHT30;46103;52.076;113.488;2023-04-01T12:51:41;-0.28;29.33
60242;SHT30;46103;52.076;113.488;2023-04-01T12:58:44;-0.26;28.88
60242;SHT30;46103;52.076;113.488;2023-04-01T13:02:33;-0.21;28.71
60242;SHT30;46103;52.076;113.488;2023-04-01T13:22:32;-0.30;28.95
60242;SHT30;46103;52.076;113.488;2023-04-01T13:25:41;-0.36;29.05
60242;SHT30;46103;52.076;113.488;2023-04-01T13:29:14;-0.38;28.82
60242;SHT30;46103;52.076;113.488;2023-04-01T13:42:31;-0.55;28.24
60242;SHT30;46103;52.076;113.488;2023-04-01T13:55:47;-0.63;28.20
60242;SHT30;46103;52.076;113.488;2023-04-01T14:16:13;-0.70;28.36
60242;SHT30;46103;52.076;113.488;2023-04-01T14:33:01;-0.90;27.96
60242;SHT30;46103;52.076;113.488;2023-04-01T14:50:30;-0.98;27.99
60242;SHT30;46103;52.076;113.488;2023-04-01T14:53:36;-1.00;28.15
60242;SHT30;46103;52.076;113.488;2023-04-01T14:57:09;-1.05;28.28
60242;SHT30;46103;52.076;113.488;2023-04-01T15:00:18;-1.03;28.43
60242;SHT30;46103;52.076;113.488;2023-04-01T15:03:45;-1.14;28.28
60242;SHT30;46103;52.076;113.488;2023-04-01T15:10:12;-1.34;28.80
60242;SHT30;46103;52.076;113.488;2023-04-01T15:30:49;-1.66;29.77
60242;SHT30;46103;52.076;113.488;2023-04-01T15:34:15;-1.77;29.86
60242;SHT30;46103;52.076;113.488;2023-04-01T15:37:56;-1.80;29.78
60242;SHT30;46103;52.076;113.488;2023-04-01T15:41:28;-1.91;30.05
60242;SHT30;46103;52.076;113.488;2023-04-01T16:15:25;-2.08;30.66
60242;SHT30;46103;52.076;113.488;2023-04-01T16:48:15;-2.44;31.32
60242;SHT30;46103;52.076;113.488;2023-04-01T16:51:22;-2.45;31.52
60242;SHT30;46103;52.076;113.488;2023-04-01T16:54:47;-2.45;30.80
60242;SHT30;46103;52.076;113.488;2023-04-01T16:57:59;-2.49;31.63
60242;SHT30;46103;52.076;113.488;2023-04-01T17:01:19;-2.53;31.61
60242;SHT30;46103;52.076;113.488;2023-04-01T17:07:49;-2.66;31.37
60242;SHT30;46103;52.076;113.488;2023-04-01T17:14:59;-2.73;31.34
60242;SHT30;46103;52.076;113.488;2023-04-01T17:28:58;-2.74;31.70
60242;SHT30;46103;52.076;113.488;2023-04-01T17:35:35;-2.87;31.77
60242;SHT30;46103;52.076;113.488;2023-04-01T17:45:45;-3.04;31.89
60242;SHT30;46103;52.076;113.488;2023-04-01T17:49:09;-3.03;31.67
60242;SHT30;46103;52.076;113.488;2023-04-01T17:52:26;-3.08;32.07
60242;SHT30;46103;52.076;113.488;2023-04-01T17:59:09;-3.18;32.07
60242;SHT30;46103;52.076;113.488;2023-04-01T18:20:50;-3.45;32.08
60242;SHT30;46103;52.076;113.488;2023-04-01T18:23:51;-3.53;32.18
60242;SHT30;46103;52.076;113.488;2023-04-01T18:27:07;-3.55;32.35
60242;SHT30;46103;52.076;113.488;2023-04-01T18:30:28;-3.60;32.07
60242;SHT30;46103;52.076;113.488;2023-04-01T18:40:42;-3.48;32.33
60242;SHT30;46103;52.076;113.488;2023-04-01T18:43:58;-3.46;32.04
60242;SHT30;46103;52.076;113.488;2023-04-01T18:50:36;-3.59;32.53
60242;SHT30;46103;52.076;113.488;2023-04-01T18:53:50;-3.66;32.64
60242;SHT30;46103;52.076;113.488;2023-04-01T18:57:10;-3.71;32.43
60242;SHT30;46103;52.076;113.488;2023-04-01T19:00:28;-3.86;32.46
60242;SHT30;46103;52.076;113.488;2023-04-01T19:13:40;-3.79;32.52
60242;SHT30;46103;52.076;113.488;2023-04-01T19:17:00;-3.90;32.85
60242;SHT30;46103;52.076;113.488;2023-04-01T19:20:31;-4.01;33.04
60242;SHT30;46103;52.076;113.488;2023-04-01T19:30:42;-4.05;33.36
60242;SHT30;46103;52.076;113.488;2023-04-01T19:45:17;-4.05;33.55
60242;SHT30;46103;52.076;113.488;2023-04-01T19:51:39;-4.08;33.82
60242;SHT30;46103;52.076;113.488;2023-04-01T20:04:56;-4.28;34.14
60242;SHT30;46103;52.076;113.488;2023-04-01T20:08:27;-4.25;34.12
60242;SHT30;46103;52.076;113.488;2023-04-01T20:17:52;-4.39;35.22
60242;SHT30;46103;52.076;113.488;2023-04-01T20:21:03;-4.38;35.19
60242;SHT30;46103;52.076;113.488;2023-04-01T20:24:22;-4.38;35.05
60242;SHT30;46103;52.076;113.488;2023-04-01T20:27:33;-4.42;35.00
60242;SHT30;46103;52.076;113.488;2023-04-01T20:41:20;-4.50;35.52
60242;SHT30;46103;52.076;113.488;2023-04-01T20:51:31;-4.48;35.61
60242;SHT30;46103;52.076;113.488;2023-04-01T21:18:28;-4.84;36.29
60242;SHT30;46103;52.076;113.488;2023-04-01T21:22:05;-4.91;36.37
60242;SHT30;46103;52.076;113.488;2023-04-01T21:42:49;-5.16;36.87
60242;SHT30;46103;52.076;113.488;2023-04-01T21:49:28;-5.22;36.80
60242;SHT30;46103;52.076;113.488;2023-04-01T22:10:05;-5.38;36.61
60242;SHT30;46103;52.076;113.488;2023-04-01T22:13:24;-5.44;36.77
60242;SHT30;46103;52.076;113.488;2023-04-01T22:16:42;-5.49;36.88
60242;SHT30;46103;52.076;113.488;2023-04-01T22:29:50;-5.46;36.51
60242;SHT30;46103;52.076;113.488;2023-04-01T22:33:16;-5.44;36.41
60242;SHT30;46103;52.076;113.488;2023-04-01T22:36:32;-5.35;36.65
60242;SHT30;46103;52.076;113.488;2023-04-01T22:40:16;-5.28;36.30
60242;SHT30;46103;52.076;113.488;2023-04-01T22:57:07;-5.23;35.71
60242;SHT30;46103;52.076;113.488;2023-04-01T23:03:38;-5.22;35.67
60242;SHT30;46103;52.076;113.488;2023-04-01T23:06:48;-5.26;35.50
60242;SHT30;46103;52.076;113.488;2023-04-01T23:09:53;-5.32;35.66
60242;SHT30;46103;52.076;113.488;2023-04-01T23:12:59;-5.19;35.67
60242;SHT30;46103;52.076;113.488;2023-04-01T23:16:04;-5.23;35.25
60242;SHT30;46103;52.076;113.488;2023-04-01T23:26:21;-5.16;35.43
60242;SHT30;46103;52.076;113.488;2023-04-01T23:29:27;-5.00;35.16
60242;SHT30;46103;52.076;113.488;2023-04-01T23:32:30;-4.84;35.17
60242;SHT30;46103;52.076;113.488;2023-04-01T23:39:21;-4.74;34.45
60242;SHT30;46103;52.076;113.488;2023-04-01T23:42:31;-4.72;34.13
60242;SHT30;46103;52.076;113.488;2023-04-01T23:45:36;-4.67;34.03
60242;SHT30;46103;52.076;113.488;2023-04-01T23:48:43;-4.65;34.46
60242;SHT30;46103;52.076;113.488;2023-04-01T23:51:59;-4.46;34.29
60242;SHT30;46103;52.076;113.488;2023-04-01T23:58:38;-4.32;34.03
